sensor_id;sensor_type;location;lat;lon;timestamp;temperature;humidity
13470;DHT22;6807;48.682;9.032;2022-07-23T00:15:24;21.80;1.00
13470;DHT22;6807;48.682;9.032;2022-07-23T00:27:42;21.40;99.90
13470;DHT22;6807;48.682;9.032;2022-07-23T00:30:28;21.50;99.90
13470;DHT22;6807;48.682;9.032;2022-07-23T01:55:58;19.90;99.90
13470;DHT22;6807;48.682;9.032;2022-07-23T02:02:31;19.90;99.90
13470;DHT22;6807;48.682;9.032;2022-07-23T02:23:02;18.00;99.90
13470;DHT22;6807;48.682;9.032;2022-07-23T02:25:29;19.30;99.90
13470;DHT22;6807;48.682;9.032;2022-07-23T02:27:56;19.30;1.00
13470;DHT22;6807;48.682;9.032;2022-07-23T02:30:23;19.30;99.90
13470;DHT22;6807;48.682;9.032;2022-07-23T02:32:49;19.40;4.70
13470;DHT22;6807;48.682;9.032;2022-07-23T02:35:16;19.40;1.00
13470;DHT22;6807;48.682;9.032;2022-07-23T02:37:43;19.40;1.00
13470;DHT22;6807;48.682;9.032;2022-07-23T02:40:12;19.50;66.10
13470;DHT22;6807;48.682;9.032;2022-07-23T02:42:39;19.50;99.90
13470;DHT22;6807;48.682;9.032;2022-07-23T02:45:07;19.70;99.90
13470;DHT22;6807;48.682;9.032;2022-07-23T02:47:34;19.70;99.90
13470;DHT22;6807;48.682;9.032;2022-07-23T02:50:00;19.90;99.90
13470;DHT22;6807;48.682;9.032;2022-07-23T02:52:29;20.00;11.80
13470;DHT22;6807;48.682;9.032;2022-07-23T02:54:56;20.00;38.00
13470;DHT22;6807;48.682;9.032;2022-07-23T02:57:24;19.90;99.30
13470;DHT22;6807;48.682;9.032;2022-07-23T02:59:51;19.90;1.00
13470;DHT22;6807;48.682;9.032;2022-07-23T03:02:18;19.80;1.00
13470;DHT22;6807;48.682;9.032;2022-07-23T03:04:45;19.80;99.90
13470;DHT22;6807;48.682;9.032;2022-07-23T03:07:12;19.80;99.90
13470;DHT22;6807;48.682;9.032;2022-07-23T03:09:39;19.70;99.90
13470;DHT22;6807;48.682;9.032;2022-07-23T03:12:06;19.60;99.90
13470;DHT22;6807;48.682;9.032;2022-07-23T03:14:35;19.60;99.90
13470;DHT22;6807;48.682;9.032;2022-07-23T03:17:01;19.50;99.90
13470;DHT22;6807;48.682;9.032;2022-07-23T03:19:28;19.50;99.90
13470;DHT22;6807;48.682;9.032;2022-07-23T03:21:55;19.50;99.90
13470;DHT22;6807;48.682;9.032;2022-07-23T03:24:22;19.50;99.90
13470;DHT22;6807;48.682;9.032;2022-07-23T03:27:10;19.40;99.90
13470;DHT22;6807;48.682;9.032;2022-07-23T03:29:38;19.40;99.90
13470;DHT22;6807;48.682;9.032;2022-07-23T03:32:05;19.30;99.90
13470;DHT22;6807;48.682;9.032;2022-07-23T03:34:32;19.30;99.90
13470;DHT22;6807;48.682;9.032;2022-07-23T03:36:58;19.30;99.90
13470;DHT22;6807;48.682;9.032;2022-07-23T03:39:25;19.10;99.90
13470;DHT22;6807;48.682;9.032;2022-07-23T03:41:52;19.10;99.90
13470;DHT22;6807;48.682;9.032;2022-07-23T03:44:19;19.00;99.90
13470;DHT22;6807;48.682;9.032;2022-07-23T03:46:47;18.90;99.90
13470;DHT22;6807;48.682;9.032;2022-07-23T03:49:14;18.90;99.90
13470;DHT22;6807;48.682;9.032;2022-07-23T03:51:41;18.80;99.90
13470;DHT22;6807;48.682;9.032;2022-07-23T03:54:09;18.70;99.90
13470;DHT22;6807;48.682;9.032;2022-07-23T03:56:35;18.70;99.90
13470;DHT22;6807;48.682;9.032;2022-07-23T03:59:03;18.70;99.90
13470;DHT22;6807;48.682;9.032;2022-07-23T04:01:30;18.70;99.90
13470;DHT22;6807;48.682;9.032;2022-07-23T04:03:58;18.80;99.90
13470;DHT22;6807;48.682;9.032;2022-07-23T04:06:25;18.80;99.90
13470;DHT22;6807;48.682;9.032;2022-07-23T04:08:52;18.70;99.90
13470;DHT22;6807;48.682;9.032;2022-07-23T04:11:20;18.90;99.90
13470;DHT22;6807;48.682;9.032;2022-07-23T04:13:47;18.80;99.90
13470;DHT22;6807;48.682;9.032;2022-07-23T04:16:14;18.80;99.90
13470;DHT22;6807;48.682;9.032;2022-07-23T04:18:41;18.80;99.90
13470;DHT22;6807;48.682;9.032;2022-07-23T04:21:09;18.80;99.90
13470;DHT22;6807;48.682;9.032;2022-07-23T04:23:36;18.80;99.90
13470;DHT22;6807;48.682;9.032;2022-07-23T04:26:03;18.80;99.90
13470;DHT22;6807;48.682;9.032;2022-07-23T04:28:30;18.80;99.90
13470;DHT22;6807;48.682;9.032;2022-07-23T04:30:57;18.90;99.90
13470;DHT22;6807;48.682;9.032;2022-07-23T04:33:24;19.00;99.90
13470;DHT22;6807;48.682;9.032;2022-07-23T04:35:51;19.00;99.90
13470;DHT22;6807;48.682;9.032;2022-07-23T04:38:19;19.10;99.90
13470;DHT22;6807;48.682;9.032;2022-07-23T04:40:46;19.10;99.90
13470;DHT22;6807;48.682;9.032;2022-07-23T04:43:13;19.10;99.90
13470;DHT22;6807;48.682;9.032;2022-07-23T04:45:40;19.20;99.90
13470;DHT22;6807;48.682;9.032;2022-07-23T04:48:07;19.20;99.90
13470;DHT22;6807;48.682;9.032;2022-07-23T04:50:33;19.30;99.90
13470;DHT22;6807;48.682;9.032;2022-07-23T04:53:00;19.40;99.90
13470;DHT22;6807;48.682;9.032;2022-07-23T04:55:29;19.60;99.90
13470;DHT22;6807;48.682;9.032;2022-07-23T04:57:56;19.60;99.90
13470;DHT22;6807;48.682;9.032;2022-07-23T05:00:23;19.60;99.90
13470;DHT22;6807;48.682;9.032;2022-07-23T05:02:50;19.70;99.90
13470;DHT22;6807;48.682;9.032;2022-07-23T05:05:17;19.80;99.90
13470;DHT22;6807;48.682;9.032;2022-07-23T05:07:43;19.90;99.90
13470;DHT22;6807;48.682;9.032;2022-07-23T05:10:10;20.00;99.90
13470;DHT22;6807;48.682;9.032;2022-07-23T05:12:39;20.10;99.90
13470;DHT22;6807;48.682;9.032;2022-07-23T05:15:06;20.20;99.90
13470;DHT22;6807;48.682;9.032;2022-07-23T05:17:33;20.30;99.90
13470;DHT22;6807;48.682;9.032;2022-07-23T05:20:00;20.50;99.90
13470;DHT22;6807;48.682;9.032;2022-07-23T05:22:27;20.50;99.90
13470;DHT22;6807;48.682;9.032;2022-07-23T05:24:54;20.60;99.90
13470;DHT22;6807;48.682;9.032;2022-07-23T05:27:20;20.70;99.90
13470;DHT22;6807;48.682;9.032;2022-07-23T05:29:49;20.80;99.90
13470;DHT22;6807;48.682;9.032;2022-07-23T05:32:16;20.90;99.90
13470;DHT22;6807;48.682;9.032;2022-07-23T05:34:43;21.00;99.90
13470;DHT22;6807;48.682;9.032;2022-07-23T05:37:09;21.20;99.90
13470;DHT22;6807;48.682;9.032;2022-07-23T05:39:36;21.30;99.90
13470;DHT22;6807;48.682;9.032;2022-07-23T05:42:03;21.40;99.90
13470;DHT22;6807;48.682;9.032;2022-07-23T05:44:30;21.40;99.90
13470;DHT22;6807;48.682;9.032;2022-07-23T05:46:59;21.30;99.90
13470;DHT22;6807;48.682;9.032;2022-07-23T05:49:26;21.30;99.90
13470;DHT22;6807;48.682;9.032;2022-07-23T05:51:53;21.10;99.90
13470;DHT22;6807;48.682;9.032;2022-07-23T05:54:20;21.30;99.90
13470;DHT22;6807;48.682;9.032;2022-07-23T05:56:46;21.30;99.90
13470;DHT22;6807;48.682;9.032;2022-07-23T05:59:13;21.30;99.90
13470;DHT22;6807;48.682;9.032;2022-07-23T06:01:40;21.30;99.90
13470;DHT22;6807;48.682;9.032;2022-07-23T06:04:09;21.40;99.90
13470;DHT22;6807;48.682;9.032;2022-07-23T06:06:35;21.50;99.90
13470;DHT22;6807;48.682;9.032;2022-07-23T06:09:02;21.60;99.90
13470;DHT22;6807;48.682;9.032;2022-07-23T06:11:29;21.70;99.90
13470;DHT22;6807;48.682;9.032;2022-07-23T06:13:56;22.00;99.90
13470;DHT22;6807;48.682;9.032;2022-07-23T06:16:23;22.20;99.90
13470;DHT22;6807;48.682;9.032;2022-07-23T06:18:50;22.50;99.90
13470;DHT22;6807;48.682;9.032;2022-07-23T06:21:18;22.70;99.90
13470;DHT22;6807;48.682;9.032;2022-07-23T06:23:45;22.80;99.90
13470;DHT22;6807;48.682;9.032;2022-07-23T06:26:12;23.20;99.90
13470;DHT22;6807;48.682;9.032;2022-07-23T06:28:39;23.10;99.90
13470;DHT22;6807;48.682;9.032;2022-07-23T06:31:06;23.50;99.90
13470;DHT22;6807;48.682;9.032;2022-07-23T06:33:33;23.30;99.90
13470;DHT22;6807;48.682;9.032;2022-07-23T06:36:00;23.60;99.90
13470;DHT22;6807;48.682;9.032;2022-07-23T06:38:28;23.60;99.90
13470;DHT22;6807;48.682;9.032;2022-07-23T06:40:55;23.70;99.90
13470;DHT22;6807;48.682;9.032;2022-07-23T06:43:22;23.70;99.90
13470;DHT22;6807;48.682;9.032;2022-07-23T06:45:49;23.70;99.90
13470;DHT22;6807;48.682;9.032;2022-07-23T06:48:15;23.50;99.90
13470;DHT22;6807;48.682;9.032;2022-07-23T06:50:42;23.40;99.90
13470;DHT22;6807;48.682;9.032;2022-07-23T06:53:09;23.30;99.90
13470;DHT22;6807;48.682;9.032;2022-07-23T06:55:37;23.30;99.90
13470;DHT22;6807;48.682;9.032;2022-07-23T06:58:05;23.30;99.90
13470;DHT22;6807;48.682;9.032;2022-07-23T07:00:32;23.30;99.90
13470;DHT22;6807;48.682;9.032;2022-07-23T07:02:59;23.40;99.90
13470;DHT22;6807;48.682;9.032;2022-07-23T07:05:26;23.30;99.90
13470;DHT22;6807;48.682;9.032;2022-07-23T07:07:53;23.00;99.90
13470;DHT22;6807;48.682;9.032;2022-07-23T07:10:20;22.70;99.90
13470;DHT22;6807;48.682;9.032;2022-07-23T07:12:49;22.70;99.90
13470;DHT22;6807;48.682;9.032;2022-07-23T07:15:15;22.70;99.90
13470;DHT22;6807;48.682;9.032;2022-07-23T07:17:42;22.90;99.90
13470;DHT22;6807;48.682;9.032;2022-07-23T07:20:10;23.50;99.90
13470;DHT22;6807;48.682;9.032;2022-07-23T07:22:37;24.30;99.90
13470;DHT22;6807;48.682;9.032;2022-07-23T07:25:05;25.10;99.90
13470;DHT22;6807;48.682;9.032;2022-07-23T07:27:31;25.60;99.90
13470;DHT22;6807;48.682;9.032;2022-07-23T07:30:00;26.10;99.90
13470;DHT22;6807;48.682;9.032;2022-07-23T07:32:27;26.30;99.90
13470;DHT22;6807;48.682;9.032;2022-07-23T07:34:54;26.30;99.90
13470;DHT22;6807;48.682;9.032;2022-07-23T07:37:20;25.90;99.90
13470;DHT22;6807;48.682;9.032;2022-07-23T07:39:47;26.30;99.90
13470;DHT22;6807;48.682;9.032;2022-07-23T07:42:14;26.70;99.90
13470;DHT22;6807;48.682;9.032;2022-07-23T07:44:41;26.50;99.90
13470;DHT22;6807;48.682;9.032;2022-07-23T07:47:09;27.20;99.90
13470;DHT22;6807;48.682;9.032;2022-07-23T07:49:36;27.80;99.90
13470;DHT22;6807;48.682;9.032;2022-07-23T07:52:04;27.10;99.90
13470;DHT22;6807;48.682;9.032;2022-07-23T07:54:31;27.40;99.90
13470;DHT22;6807;48.682;9.032;2022-07-23T07:56:59;27.40;99.90
13470;DHT22;6807;48.682;9.032;2022-07-23T07:59:26;27.50;99.90
13470;DHT22;6807;48.682;9.032;2022-07-23T08:01:53;27.90;99.90
13470;DHT22;6807;48.682;9.032;2022-07-23T08:04:21;27.90;99.90
13470;DHT22;6807;48.682;9.032;2022-07-23T08:06:48;27.60;99.90
13470;DHT22;6807;48.682;9.032;2022-07-23T08:09:15;27.60;99.90
13470;DHT22;6807;48.682;9.032;2022-07-23T08:11:42;28.00;99.90
13470;DHT22;6807;48.682;9.032;2022-07-23T08:14:08;27.80;99.90
13470;DHT22;6807;48.682;9.032;2022-07-23T08:16:36;27.30;99.90
13470;DHT22;6807;48.682;9.032;2022-07-23T08:19:03;26.90;99.90
13470;DHT22;6807;48.682;9.032;2022-07-23T08:21:31;27.00;99.90
13470;DHT22;6807;48.682;9.032;2022-07-23T08:23:58;27.50;99.90
13470;DHT22;6807;48.682;9.032;2022-07-23T08:26:25;27.90;99.90
13470;DHT22;6807;48.682;9.032;2022-07-23T08:28:52;27.60;99.90
13470;DHT22;6807;48.682;9.032;2022-07-23T08:31:19;28.00;99.90
13470;DHT22;6807;48.682;9.032;2022-07-23T08:33:46;28.40;99.90
13470;DHT22;6807;48.682;9.032;2022-07-23T08:36:13;28.30;99.90
13470;DHT22;6807;48.682;9.032;2022-07-23T08:38:41;28.70;99.90
13470;DHT22;6807;48.682;9.032;2022-07-23T08:41:09;28.30;99.90
13470;DHT22;6807;48.682;9.032;2022-07-23T08:43:36;28.50;99.90
13470;DHT22;6807;48.682;9.032;2022-07-23T08:46:03;28.00;99.90
13470;DHT22;6807;48.682;9.032;2022-07-23T08:48:33;27.50;99.90
13470;DHT22;6807;48.682;9.032;2022-07-23T08:51:02;28.30;99.90
13470;DHT22;6807;48.682;9.032;2022-07-23T08:53:31;27.30;99.90
13470;DHT22;6807;48.682;9.032;2022-07-23T08:56:01;26.40;99.90
13470;DHT22;6807;48.682;9.032;2022-07-23T08:58:29;26.60;99.90
13470;DHT22;6807;48.682;9.032;2022-07-23T09:00:57;26.60;99.90
13470;DHT22;6807;48.682;9.032;2022-07-23T09:03:25;26.70;99.90
13470;DHT22;6807;48.682;9.032;2022-07-23T09:05:53;27.30;99.90
13470;DHT22;6807;48.682;9.032;2022-07-23T09:08:22;27.00;99.90
13470;DHT22;6807;48.682;9.032;2022-07-23T09:10:51;28.10;99.90
13470;DHT22;6807;48.682;9.032;2022-07-23T09:13:28;29.40;99.90
13470;DHT22;6807;48.682;9.032;2022-07-23T09:15:57;29.20;99.90
13470;DHT22;6807;48.682;9.032;2022-07-23T09:18:43;29.80;99.90
13470;DHT22;6807;48.682;9.032;2022-07-23T09:21:12;30.00;99.90
13470;DHT22;6807;48.682;9.032;2022-07-23T09:23:41;30.30;99.90
13470;DHT22;6807;48.682;9.032;2022-07-23T09:26:20;30.90;99.90
13470;DHT22;6807;48.682;9.032;2022-07-23T09:28:54;31.20;99.90
13470;DHT22;6807;48.682;9.032;2022-07-23T09:31:21;30.60;99.90
13470;DHT22;6807;48.682;9.032;2022-07-23T09:33:49;30.50;99.90
13470;DHT22;6807;48.682;9.032;2022-07-23T09:36:17;31.20;99.90
13470;DHT22;6807;48.682;9.032;2022-07-23T09:38:53;30.70;99.90
13470;DHT22;6807;48.682;9.032;2022-07-23T09:41:20;31.20;99.90
13470;DHT22;6807;48.682;9.032;2022-07-23T09:43:47;31.50;99.90
13470;DHT22;6807;48.682;9.032;2022-07-23T09:46:22;30.40;99.90
13470;DHT22;6807;48.682;9.032;2022-07-23T09:48:49;30.90;99.90
13470;DHT22;6807;48.682;9.032;2022-07-23T09:51:17;31.50;99.90
13470;DHT22;6807;48.682;9.032;2022-07-23T09:53:46;31.90;99.90
13470;DHT22;6807;48.682;9.032;2022-07-23T09:56:14;32.00;99.90
13470;DHT22;6807;48.682;9.032;2022-07-23T09:58:41;31.70;99.90
13470;DHT22;6807;48.682;9.032;2022-07-23T10:01:13;31.40;99.90
13470;DHT22;6807;48.682;9.032;2022-07-23T10:03:42;30.70;99.90
13470;DHT22;6807;48.682;9.032;2022-07-23T10:06:10;31.00;99.90
13470;DHT22;6807;48.682;9.032;2022-07-23T10:08:40;31.60;99.90
13470;DHT22;6807;48.682;9.032;2022-07-23T10:11:09;31.20;99.90
13470;DHT22;6807;48.682;9.032;2022-07-23T10:13:38;30.90;99.90
13470;DHT22;6807;48.682;9.032;2022-07-23T10:16:22;31.50;99.90
13470;DHT22;6807;48.682;9.032;2022-07-23T10:18:50;31.40;99.90
13470;DHT22;6807;48.682;9.032;2022-07-23T10:21:38;31.50;99.90
13470;DHT22;6807;48.682;9.032;2022-07-23T10:24:16;31.80;99.90
13470;DHT22;6807;48.682;9.032;2022-07-23T10:26:54;31.90;99.90
13470;DHT22;6807;48.682;9.032;2022-07-23T10:29:32;32.60;99.90
13470;DHT22;6807;48.682;9.032;2022-07-23T10:32:12;32.80;99.90
13470;DHT22;6807;48.682;9.032;2022-07-23T10:34:52;32.40;99.90
13470;DHT22;6807;48.682;9.032;2022-07-23T10:37:25;32.90;99.90
13470;DHT22;6807;48.682;9.032;2022-07-23T10:40:09;33.90;99.90
13470;DHT22;6807;48.682;9.032;2022-07-23T10:42:36;34.10;99.90
13470;DHT22;6807;48.682;9.032;2022-07-23T10:45:22;33.60;99.90
13470;DHT22;6807;48.682;9.032;2022-07-23T10:47:51;33.20;65.00
13470;DHT22;6807;48.682;9.032;2022-07-23T10:50:21;33.50;99.90
13470;DHT22;6807;48.682;9.032;2022-07-23T10:53:13;33.40;99.90
13470;DHT22;6807;48.682;9.032;2022-07-23T10:55:50;32.50;99.90
13470;DHT22;6807;48.682;9.032;2022-07-23T10:58:20;31.10;99.90
13470;DHT22;6807;48.682;9.032;2022-07-23T11:00:47;30.30;99.90
13470;DHT22;6807;48.682;9.032;2022-07-23T11:03:34;30.30;99.90
13470;DHT22;6807;48.682;9.032;2022-07-23T11:06:05;31.80;99.90
13470;DHT22;6807;48.682;9.032;2022-07-23T11:08:33;32.50;99.90
13470;DHT22;6807;48.682;9.032;2022-07-23T11:11:18;33.80;99.90
13470;DHT22;6807;48.682;9.032;2022-07-23T11:13:49;33.30;99.90
13470;DHT22;6807;48.682;9.032;2022-07-23T11:16:18;31.60;99.90
13470;DHT22;6807;48.682;9.032;2022-07-23T11:18:57;31.30;99.90
13470;DHT22;6807;48.682;9.032;2022-07-23T11:21:44;31.80;99.90
13470;DHT22;6807;48.682;9.032;2022-07-23T11:24:13;31.20;1.00
13470;DHT22;6807;48.682;9.032;2022-07-23T11:26:58;30.40;1.00
13470;DHT22;6807;48.682;9.032;2022-07-23T11:29:42;29.90;1.00
13470;DHT22;6807;48.682;9.032;2022-07-23T11:32:19;32.20;36.90
13470;DHT22;6807;48.682;9.032;2022-07-23T11:34:48;32.80;99.90
13470;DHT22;6807;48.682;9.032;2022-07-23T11:37:32;32.00;99.90
13470;DHT22;6807;48.682;9.032;2022-07-23T11:40:01;32.10;99.90
13470;DHT22;6807;48.682;9.032;2022-07-23T11:42:28;33.20;99.90
13470;DHT22;6807;48.682;9.032;2022-07-23T11:44:55;32.10;99.90
13470;DHT22;6807;48.682;9.032;2022-07-23T11:47:23;33.10;99.90
13470;DHT22;6807;48.682;9.032;2022-07-23T11:49:54;34.00;99.90
13470;DHT22;6807;48.682;9.032;2022-07-23T11:52:22;34.40;99.90
13470;DHT22;6807;48.682;9.032;2022-07-23T11:54:53;35.10;99.90
13470;DHT22;6807;48.682;9.032;2022-07-23T11:57:24;35.10;99.90
13470;DHT22;6807;48.682;9.032;2022-07-23T11:59:53;34.30;99.90
13470;DHT22;6807;48.682;9.032;2022-07-23T12:02:21;34.20;99.90
13470;DHT22;6807;48.682;9.032;2022-07-23T12:04:51;34.30;99.90
13470;DHT22;6807;48.682;9.032;2022-07-23T12:07:29;35.10;99.90
13470;DHT22;6807;48.682;9.032;2022-07-23T12:09:59;34.70;1.00
13470;DHT22;6807;48.682;9.032;2022-07-23T12:12:26;34.30;1.00
13470;DHT22;6807;48.682;9.032;2022-07-23T12:14:56;32.80;95.10
13470;DHT22;6807;48.682;9.032;2022-07-23T12:17:28;31.60;38.00
13470;DHT22;6807;48.682;9.032;2022-07-23T12:19:56;32.90;1.00
13470;DHT22;6807;48.682;9.032;2022-07-23T12:22:23;34.10;99.90
13470;DHT22;6807;48.682;9.032;2022-07-23T12:24:59;34.30;99.60
13470;DHT22;6807;48.682;9.032;2022-07-23T12:27:28;34.10;99.90
13470;DHT22;6807;48.682;9.032;2022-07-23T12:29:55;32.20;99.90
13470;DHT22;6807;48.682;9.032;2022-07-23T12:32:23;31.90;99.90
13470;DHT22;6807;48.682;9.032;2022-07-23T12:35:03;32.00;99.90
13470;DHT22;6807;48.682;9.032;2022-07-23T12:37:32;32.30;99.90
13470;DHT22;6807;48.682;9.032;2022-07-23T12:40:22;32.80;99.90
13470;DHT22;6807;48.682;9.032;2022-07-23T12:42:51;32.80;1.00
13470;DHT22;6807;48.682;9.032;2022-07-23T12:45:19;33.60;99.90
13470;DHT22;6807;48.682;9.032;2022-07-23T12:48:03;32.80;1.00
13470;DHT22;6807;48.682;9.032;2022-07-23T12:50:40;31.60;99.90
13470;DHT22;6807;48.682;9.032;2022-07-23T12:53:10;31.30;1.00
13470;DHT22;6807;48.682;9.032;2022-07-23T12:55:39;31.60;1.00
13470;DHT22;6807;48.682;9.032;2022-07-23T12:58:08;33.00;1.00
13470;DHT22;6807;48.682;9.032;2022-07-23T13:00:53;31.70;1.00
13470;DHT22;6807;48.682;9.032;2022-07-23T13:03:22;31.10;26.90
13470;DHT22;6807;48.682;9.032;2022-07-23T13:05:49;32.10;1.00
13470;DHT22;6807;48.682;9.032;2022-07-23T13:08:16;33.50;99.90
13470;DHT22;6807;48.682;9.032;2022-07-23T13:10:44;33.50;99.90
13470;DHT22;6807;48.682;9.032;2022-07-23T13:13:14;33.90;1.00
13470;DHT22;6807;48.682;9.032;2022-07-23T13:15:41;34.30;99.90
13470;DHT22;6807;48.682;9.032;2022-07-23T13:18:08;34.20;1.00
13470;DHT22;6807;48.682;9.032;2022-07-23T13:20:35;33.70;1.00
13470;DHT22;6807;48.682;9.032;2022-07-23T13:23:04;32.70;1.00
13470;DHT22;6807;48.682;9.032;2022-07-23T13:25:31;32.30;1.00
13470;DHT22;6807;48.682;9.032;2022-07-23T13:27:59;32.40;1.00
13470;DHT22;6807;48.682;9.032;2022-07-23T13:30:26;32.00;1.00
13470;DHT22;6807;48.682;9.032;2022-07-23T13:32:53;31.10;99.90
13470;DHT22;6807;48.682;9.032;2022-07-23T13:35:21;30.50;99.90
13470;DHT22;6807;48.682;9.032;2022-07-23T13:37:48;30.40;93.60
13470;DHT22;6807;48.682;9.032;2022-07-23T13:40:16;29.60;1.00
13470;DHT22;6807;48.682;9.032;2022-07-23T13:42:43;29.40;1.00
13470;DHT22;6807;48.682;9.032;2022-07-23T13:45:11;29.60;37.60
13470;DHT22;6807;48.682;9.032;2022-07-23T13:47:38;29.90;87.10
13470;DHT22;6807;48.682;9.032;2022-07-23T13:50:06;30.10;1.00
13470;DHT22;6807;48.682;9.032;2022-07-23T13:52:33;29.90;99.90
13470;DHT22;6807;48.682;9.032;2022-07-23T13:55:00;29.20;1.00
13470;DHT22;6807;48.682;9.032;2022-07-23T13:57:27;28.40;1.00
13470;DHT22;6807;48.682;9.032;2022-07-23T13:59:54;28.40;1.00
13470;DHT22;6807;48.682;9.032;2022-07-23T14:02:23;28.40;1.00
13470;DHT22;6807;48.682;9.032;2022-07-23T14:04:50;28.30;1.00
13470;DHT22;6807;48.682;9.032;2022-07-23T14:07:17;28.30;1.00
13470;DHT22;6807;48.682;9.032;2022-07-23T14:09:44;28.40;1.00
13470;DHT22;6807;48.682;9.032;2022-07-23T14:12:11;28.60;99.90
13470;DHT22;6807;48.682;9.032;2022-07-23T14:14:38;28.50;1.00
13470;DHT22;6807;48.682;9.032;2022-07-23T14:17:05;28.40;99.90
13470;DHT22;6807;48.682;9.032;2022-07-23T14:19:34;29.00;1.00
13470;DHT22;6807;48.682;9.032;2022-07-23T14:22:01;28.90;21.10
13470;DHT22;6807;48.682;9.032;2022-07-23T14:24:29;29.00;1.00
13470;DHT22;6807;48.682;9.032;2022-07-23T14:26:55;30.00;99.90
13470;DHT22;6807;48.682;9.032;2022-07-23T14:29:22;29.70;1.00
13470;DHT22;6807;48.682;9.032;2022-07-23T14:31:49;29.40;99.90
13470;DHT22;6807;48.682;9.032;2022-07-23T14:34:17;29.40;1.00
13470;DHT22;6807;48.682;9.032;2022-07-23T14:36:47;28.70;99.90
13470;DHT22;6807;48.682;9.032;2022-07-23T14:39:14;28.90;1.00
13470;DHT22;6807;48.682;9.032;2022-07-23T14:41:41;28.80;99.90
13470;DHT22;6807;48.682;9.032;2022-07-23T14:44:07;28.60;1.00
13470;DHT22;6807;48.682;9.032;2022-07-23T14:46:35;28.30;1.00
13470;DHT22;6807;48.682;9.032;2022-07-23T14:49:03;28.30;99.90
13470;DHT22;6807;48.682;9.032;2022-07-23T14:51:30;28.20;99.90
13470;DHT22;6807;48.682;9.032;2022-07-23T14:53:58;28.10;1.00
13470;DHT22;6807;48.682;9.032;2022-07-23T14:56:25;28.00;99.90
13470;DHT22;6807;48.682;9.032;2022-07-23T14:58:52;27.90;1.00
13470;DHT22;6807;48.682;9.032;2022-07-23T15:01:21;28.10;97.10
13470;DHT22;6807;48.682;9.032;2022-07-23T15:03:49;28.30;99.90
13470;DHT22;6807;48.682;9.032;2022-07-23T15:06:16;28.20;1.00
13470;DHT22;6807;48.682;9.032;2022-07-23T15:08:43;28.20;99.90
13470;DHT22;6807;48.682;9.032;2022-07-23T15:11:12;28.20;1.00
13470;DHT22;6807;48.682;9.032;2022-07-23T15:13:39;28.20;99.90
13470;DHT22;6807;48.682;9.032;2022-07-23T15:16:06;28.10;1.00
13470;DHT22;6807;48.682;9.032;2022-07-23T15:18:33;28.30;99.90
13470;DHT22;6807;48.682;9.032;2022-07-23T15:21:00;28.20;59.30
13470;DHT22;6807;48.682;9.032;2022-07-23T15:23:27;28.20;1.00
13470;DHT22;6807;48.682;9.032;2022-07-23T15:25:54;28.10;1.00
13470;DHT22;6807;48.682;9.032;2022-07-23T15:28:23;28.20;1.00
13470;DHT22;6807;48.682;9.032;2022-07-23T15:30:50;28.30;99.90
13470;DHT22;6807;48.682;9.032;2022-07-23T15:33:18;28.30;1.00
13470;DHT22;6807;48.682;9.032;2022-07-23T15:35:45;28.90;99.90
13470;DHT22;6807;48.682;9.032;2022-07-23T15:38:13;29.20;99.90
13470;DHT22;6807;48.682;9.032;2022-07-23T15:40:40;28.90;99.90
13470;DHT22;6807;48.682;9.032;2022-07-23T15:43:07;28.60;99.90
13470;DHT22;6807;48.682;9.032;2022-07-23T15:45:40;28.20;1.00
13470;DHT22;6807;48.682;9.032;2022-07-23T15:48:07;28.00;99.90
13470;DHT22;6807;48.682;9.032;2022-07-23T15:50:34;28.00;1.00
13470;DHT22;6807;48.682;9.032;2022-07-23T15:53:01;28.40;1.00
13470;DHT22;6807;48.682;9.032;2022-07-23T15:55:28;28.70;99.90
13470;DHT22;6807;48.682;9.032;2022-07-23T15:57:55;29.60;99.90
13470;DHT22;6807;48.682;9.032;2022-07-23T16:00:22;29.80;99.90
13470;DHT22;6807;48.682;9.032;2022-07-23T16:02:50;30.20;99.90
13470;DHT22;6807;48.682;9.032;2022-07-23T16:05:17;30.10;99.90
13470;DHT22;6807;48.682;9.032;2022-07-23T16:07:44;29.90;1.00
13470;DHT22;6807;48.682;9.032;2022-07-23T16:10:11;29.60;99.90
13470;DHT22;6807;48.682;9.032;2022-07-23T16:12:39;29.10;1.00
13470;DHT22;6807;48.682;9.032;2022-07-23T16:15:07;28.60;99.90
13470;DHT22;6807;48.682;9.032;2022-07-23T16:17:34;28.10;99.90
13470;DHT22;6807;48.682;9.032;2022-07-23T16:20:03;28.00;99.90
13470;DHT22;6807;48.682;9.032;2022-07-23T16:22:32;28.10;1.00
13470;DHT22;6807;48.682;9.032;2022-07-23T16:24:59;28.20;99.90
13470;DHT22;6807;48.682;9.032;2022-07-23T16:27:26;28.00;99.90
13470;DHT22;6807;48.682;9.032;2022-07-23T16:29:53;27.90;94.20
13470;DHT22;6807;48.682;9.032;2022-07-23T16:32:20;27.80;1.00
13470;DHT22;6807;48.682;9.032;2022-07-23T16:34:47;27.70;1.00
13470;DHT22;6807;48.682;9.032;2022-07-23T16:37:15;27.60;99.90
13470;DHT22;6807;48.682;9.032;2022-07-23T16:39:42;27.50;99.90
13470;DHT22;6807;48.682;9.032;2022-07-23T16:42:09;27.60;1.00
13470;DHT22;6807;48.682;9.032;2022-07-23T16:44:36;27.50;99.90
13470;DHT22;6807;48.682;9.032;2022-07-23T16:47:04;27.60;1.00
13470;DHT22;6807;48.682;9.032;2022-07-23T16:49:30;27.60;1.00
13470;DHT22;6807;48.682;9.032;2022-07-23T16:51:59;27.60;99.90
13470;DHT22;6807;48.682;9.032;2022-07-23T16:54:28;27.60;1.00
13470;DHT22;6807;48.682;9.032;2022-07-23T16:56:55;28.10;1.00
13470;DHT22;6807;48.682;9.032;2022-07-23T16:59:22;28.30;1.00
13470;DHT22;6807;48.682;9.032;2022-07-23T17:01:49;28.30;73.30
13470;DHT22;6807;48.682;9.032;2022-07-23T17:04:15;28.40;1.00
13470;DHT22;6807;48.682;9.032;2022-07-23T17:06:42;28.30;1.00
13470;DHT22;6807;48.682;9.032;2022-07-23T17:09:10;28.50;1.00
13470;DHT22;6807;48.682;9.032;2022-07-23T17:11:39;28.10;99.90
13470;DHT22;6807;48.682;9.032;2022-07-23T17:14:06;27.70;99.90
13470;DHT22;6807;48.682;9.032;2022-07-23T17:16:33;27.30;1.00
13470;DHT22;6807;48.682;9.032;2022-07-23T17:19:00;27.00;53.50
13470;DHT22;6807;48.682;9.032;2022-07-23T17:21:27;26.60;99.90
13470;DHT22;6807;48.682;9.032;2022-07-23T17:23:54;26.40;99.90
13470;DHT22;6807;48.682;9.032;2022-07-23T17:26:21;26.30;1.00
13470;DHT22;6807;48.682;9.032;2022-07-23T17:28:49;26.20;99.90
13470;DHT22;6807;48.682;9.032;2022-07-23T17:31:16;26.10;99.90
13470;DHT22;6807;48.682;9.032;2022-07-23T17:33:44;26.30;1.00
13470;DHT22;6807;48.682;9.032;2022-07-23T17:36:12;26.30;1.00
13470;DHT22;6807;48.682;9.032;2022-07-23T17:38:39;26.20;1.00
13470;DHT22;6807;48.682;9.032;2022-07-23T17:41:06;26.10;99.90
13470;DHT22;6807;48.682;9.032;2022-07-23T17:43:33;26.10;99.90
13470;DHT22;6807;48.682;9.032;2022-07-23T17:46:01;26.00;1.00
13470;DHT22;6807;48.682;9.032;2022-07-23T17:48:28;25.80;73.00
13470;DHT22;6807;48.682;9.032;2022-07-23T17:50:55;25.80;49.60
13470;DHT22;6807;48.682;9.032;2022-07-23T17:53:23;25.70;99.90
13470;DHT22;6807;48.682;9.032;2022-07-23T17:55:51;25.70;99.90
13470;DHT22;6807;48.682;9.032;2022-07-23T17:58:18;25.60;1.00
13470;DHT22;6807;48.682;9.032;2022-07-23T18:00:45;25.60;75.60
13470;DHT22;6807;48.682;9.032;2022-07-23T18:03:14;25.50;1.00
13470;DHT22;6807;48.682;9.032;2022-07-23T18:05:41;25.50;1.00
13470;DHT22;6807;48.682;9.032;2022-07-23T18:08:08;25.50;1.00